sensor_id;sensor_type;location;lat;lon;timestamp;pressure;altitude;pressure_sealevel;temperature
69420;BMP280;56612;52.030;113.524;2022-09-17T00:01:06;92386.00;;;6.67
69420;BMP280;56612;52.030;113.524;2022-09-17T00:04:10;92387.97;;;6.66
69420;BMP280;56612;52.030;113.524;2022-09-17T00:07:14;92392.50;;;6.62
69420;BMP280;56612;52.030;113.524;2022-09-17T00:10:19;92397.09;;;6.59
69420;BMP280;56612;52.030;113.524;2022-09-17T00:13:22;92398.31;;;6.52
69420;BMP280;56612;52.030;113.524;2022-09-17T00:19:35;92398.97;;;6.53
69420;BMP280;56612;52.030;113.524;2022-09-17T00:22:39;92390.91;;;6.47
69420;BMP280;56612;52.030;113.524;2022-09-17T00:25:44;92397.00;;;6.53
69420;BMP280;56612;52.030;113.524;2022-09-17T00:28:50;92405.75;;;6.60
69420;BMP280;56612;52.030;113.524;2022-09-17T00:31:53;92405.84;;;6.66
69420;BMP280;56612;52.030;113.524;2022-09-17T00:34:57;92413.91;;;6.70
69420;BMP280;56612;52.030;113.524;2022-09-17T00:38:00;92399.25;;;6.67
69420;BMP280;56612;52.030;113.524;2022-09-17T00:41:04;92399.34;;;6.73
69420;BMP280;56612;52.030;113.524;2022-09-17T00:47:58;92412.06;;;6.79
69420;BMP280;56612;52.030;113.524;2022-09-17T00:51:05;92418.63;;;6.76
69420;BMP280;56612;52.030;113.524;2022-09-17T00:54:12;92423.22;;;6.71
69420;BMP280;56612;52.030;113.524;2022-09-17T00:57:15;92421.38;;;6.80
69420;BMP280;56612;52.030;113.524;2022-09-17T01:00:20;92422.81;;;6.87
69420;BMP280;56612;52.030;113.524;2022-09-17T01:03:25;92430.78;;;6.87
69420;BMP280;56612;52.030;113.524;2022-09-17T01:06:37;92429.56;;;6.92
69420;BMP280;56612;52.030;113.524;2022-09-17T01:10:13;92438.34;;;7.01
69420;BMP280;56612;52.030;113.524;2022-09-17T01:23:34;92436.34;;;7.01
69420;BMP280;56612;52.030;113.524;2022-09-17T01:30:38;92448.41;;;7.06
69420;BMP280;56612;52.030;113.524;2022-09-17T01:37:05;92459.09;;;7.10
69420;BMP280;56612;52.030;113.524;2022-09-17T01:40:16;92461.78;;;7.12
69420;BMP280;56612;52.030;113.524;2022-09-17T01:43:34;92466.53;;;7.18
69420;BMP280;56612;52.030;113.524;2022-09-17T01:46:54;92458.50;;;7.14
69420;BMP280;56612;52.030;113.524;2022-09-17T01:50:06;92469.75;;;7.12
69420;BMP280;56612;52.030;113.524;2022-09-17T01:53:13;92475.03;;;7.10
69420;BMP280;56612;52.030;113.524;2022-09-17T01:56:21;92486.25;;;7.07
69420;BMP280;56612;52.030;113.524;2022-09-17T02:05:57;92492.91;;;7.08
69420;BMP280;56612;52.030;113.524;2022-09-17T02:09:11;92498.97;;;7.12
69420;BMP280;56612;52.030;113.524;2022-09-17T02:12:19;92504.25;;;7.10
69420;BMP280;56612;52.030;113.524;2022-09-17T02:15:32;92501.59;;;7.08
69420;BMP280;56612;52.030;113.524;2022-09-17T02:19:17;92502.25;;;7.09
69420;BMP280;56612;52.030;113.524;2022-09-17T02:22:27;92507.56;;;7.09
69420;BMP280;56612;52.030;113.524;2022-09-17T02:25:35;92512.22;;;7.08
69420;BMP280;56612;52.030;113.524;2022-09-17T02:28:47;92514.75;;;7.04
69420;BMP280;56612;52.030;113.524;2022-09-17T02:31:52;92524.91;;;7.14
69420;BMP280;56612;52.030;113.524;2022-09-17T02:34:55;92525.56;;;7.14
69420;BMP280;56612;52.030;113.524;2022-09-17T02:38:00;92524.19;;;7.11
69420;BMP280;56612;52.030;113.524;2022-09-17T02:41:16;92525.50;;;7.10
69420;BMP280;56612;52.030;113.524;2022-09-17T02:44:52;92524.31;;;7.17
69420;BMP280;56612;52.030;113.524;2022-09-17T02:58:46;92527.25;;;7.34
69420;BMP280;56612;52.030;113.524;2022-09-17T03:02:02;92526.53;;;7.29
69420;BMP280;56612;52.030;113.524;2022-09-17T03:05:09;92528.53;;;7.30
69420;BMP280;56612;52.030;113.524;2022-09-17T03:08:13;92531.91;;;7.33
69420;BMP280;56612;52.030;113.524;2022-09-17T03:11:18;92528.63;;;7.37
69420;BMP280;56612;52.030;113.524;2022-09-17T03:14:22;92531.28;;;7.37
69420;BMP280;56612;52.030;113.524;2022-09-17T03:17:26;92537.16;;;7.29
69420;BMP280;56612;52.030;113.524;2022-09-17T03:20:29;92542.56;;;7.35
69420;BMP280;56612;52.030;113.524;2022-09-17T03:23:33;92538.03;;;7.42
69420;BMP280;56612;52.030;113.524;2022-09-17T03:26:37;92546.06;;;7.46
69420;BMP280;56612;52.030;113.524;2022-09-17T03:29:41;92545.41;;;7.47
69420;BMP280;56612;52.030;113.524;2022-09-17T03:32:44;92544.09;;;7.48
69420;BMP280;56612;52.030;113.524;2022-09-17T03:35:47;92529.47;;;7.47
69420;BMP280;56612;52.030;113.524;2022-09-17T03:38:55;92545.41;;;7.47
69420;BMP280;56612;52.030;113.524;2022-09-17T03:41:59;92545.28;;;7.39
69420;BMP280;56612;52.030;113.524;2022-09-17T03:45:02;92536.03;;;7.40
69420;BMP280;56612;52.030;113.524;2022-09-17T03:48:06;92548.00;;;7.41
69420;BMP280;56612;52.030;113.524;2022-09-17T03:51:10;92544.69;;;7.43
69420;BMP280;56612;52.030;113.524;2022-09-17T03:54:14;92554.75;;;7.48
69420;BMP280;56612;52.030;113.524;2022-09-17T03:57:17;92546.19;;;7.52
69420;BMP280;56612;52.030;113.524;2022-09-17T04:00:20;92541.56;;;7.54
69420;BMP280;56612;52.030;113.524;2022-09-17T04:03:25;92558.91;;;7.59
69420;BMP280;56612;52.030;113.524;2022-09-17T04:06:30;92555.56;;;7.57
69420;BMP280;56612;52.030;113.524;2022-09-17T04:09:33;92547.44;;;7.49
69420;BMP280;56612;52.030;113.524;2022-09-17T04:12:37;92552.72;;;7.45
69420;BMP280;56612;52.030;113.524;2022-09-17T04:15:41;92564.00;;;7.45
69420;BMP280;56612;52.030;113.524;2022-09-17T04:18:45;92566.97;;;7.61
69420;BMP280;56612;52.030;113.524;2022-09-17T04:21:49;92566.97;;;7.61
69420;BMP280;56612;52.030;113.524;2022-09-17T04:24:53;92569.47;;;7.53
69420;BMP280;56612;52.030;113.524;2022-09-17T04:27:57;92574.84;;;7.57
69420;BMP280;56612;52.030;113.524;2022-09-17T04:31:00;92577.50;;;7.57
69420;BMP280;56612;52.030;113.524;2022-09-17T04:34:03;92580.16;;;7.55
69420;BMP280;56612;52.030;113.524;2022-09-17T04:37:07;92573.69;;;7.67
69420;BMP280;56612;52.030;113.524;2022-09-17T04:40:10;92591.56;;;7.62
69420;BMP280;56612;52.030;113.524;2022-09-17T04:43:15;92594.84;;;7.60
69420;BMP280;56612;52.030;113.524;2022-09-17T04:46:18;92596.78;;;7.58
69420;BMP280;56612;52.030;113.524;2022-09-17T04:49:22;92590.13;;;7.57
69420;BMP280;56612;52.030;113.524;2022-09-17T04:52:25;92603.41;;;7.55
69420;BMP280;56612;52.030;113.524;2022-09-17T04:55:32;92615.47;;;7.62
69420;BMP280;56612;52.030;113.524;2022-09-17T04:58:36;92604.72;;;7.54
69420;BMP280;56612;52.030;113.524;2022-09-17T05:01:41;92616.69;;;7.57
69420;BMP280;56612;52.030;113.524;2022-09-17T05:04:46;92620.06;;;7.59
69420;BMP280;56612;52.030;113.524;2022-09-17T05:07:50;92620.84;;;7.64
69420;BMP280;56612;52.030;113.524;2022-09-17T05:10:54;92633.50;;;7.66
69420;BMP280;56612;52.030;113.524;2022-09-17T05:13:58;92637.50;;;7.67
69420;BMP280;56612;52.030;113.524;2022-09-17T05:17:03;92632.75;;;7.61
69420;BMP280;56612;52.030;113.524;2022-09-17T05:20:07;92645.38;;;7.60
69420;BMP280;56612;52.030;113.524;2022-09-17T05:23:11;92651.41;;;7.63
69420;BMP280;56612;52.030;113.524;2022-09-17T05:26:15;92653.38;;;7.62
69420;BMP280;56612;52.030;113.524;2022-09-17T05:29:19;92644.16;;;7.68
69420;BMP280;56612;52.030;113.524;2022-09-17T05:32:22;92652.59;;;7.58
69420;BMP280;56612;52.030;113.524;2022-09-17T05:35:27;92664.59;;;7.59
69420;BMP280;56612;52.030;113.524;2022-09-17T05:38:31;92662.75;;;7.66
69420;BMP280;56612;52.030;113.524;2022-09-17T05:41:35;92666.63;;;7.60
69420;BMP280;56612;52.030;113.524;2022-09-17T05:44:38;92670.66;;;7.61
69420;BMP280;56612;52.030;113.524;2022-09-17T05:47:42;92673.34;;;7.63
69420;BMP280;56612;52.030;113.524;2022-09-17T05:50:45;92670.88;;;7.74
69420;BMP280;56612;52.030;113.524;2022-09-17T05:53:48;92679.53;;;7.74
69420;BMP280;56612;52.030;113.524;2022-09-17T05:56:52;92681.47;;;7.72
69420;BMP280;56612;52.030;113.524;2022-09-17T05:59:56;92682.25;;;7.80
69420;BMP280;56612;52.030;113.524;2022-09-17T06:02:59;92687.69;;;7.84
69420;BMP280;56612;52.030;113.524;2022-09-17T06:06:03;92689.75;;;7.88
69420;BMP280;56612;52.030;113.524;2022-09-17T06:09:08;92710.38;;;7.89
69420;BMP280;56612;52.030;113.524;2022-09-17T06:12:13;92707.91;;;8.00
69420;BMP280;56612;52.030;113.524;2022-09-17T06:15:16;92702.72;;;8.08
69420;BMP280;56612;52.030;113.524;2022-09-17T06:18:20;92720.22;;;8.19
69420;BMP280;56612;52.030;113.524;2022-09-17T06:21:24;92722.28;;;8.22
69420;BMP280;56612;52.030;113.524;2022-09-17T06:24:28;92721.81;;;8.34
69420;BMP280;56612;52.030;113.524;2022-09-17T06:27:32;92720.56;;;8.39
69420;BMP280;56612;52.030;113.524;2022-09-17T06:30:36;92734.59;;;8.42
69420;BMP280;56612;52.030;113.524;2022-09-17T06:33:39;92718.03;;;8.47
69420;BMP280;56612;52.030;113.524;2022-09-17T06:36:42;92729.63;;;8.64
69420;BMP280;56612;52.030;113.524;2022-09-17T06:39:46;92713.09;;;8.72
69420;BMP280;56612;52.030;113.524;2022-09-17T06:42:56;92717.88;;;8.79
69420;BMP280;56612;52.030;113.524;2022-09-17T06:46:03;92709.72;;;8.69
69420;BMP280;56612;52.030;113.524;2022-09-17T06:49:11;92725.97;;;8.87
69420;BMP280;56612;52.030;113.524;2022-09-17T06:52:15;92718.00;;;8.87
69420;BMP280;56612;52.030;113.524;2022-09-17T06:55:19;92722.19;;;9.03
69420;BMP280;56612;52.030;113.524;2022-09-17T06:58:24;92733.59;;;9.07
69420;BMP280;56612;52.030;113.524;2022-09-17T07:01:28;92729.00;;;9.14
69420;BMP280;56612;52.030;113.524;2022-09-17T07:04:32;92741.59;;;9.07
69420;BMP280;56612;52.030;113.524;2022-09-17T07:07:36;92739.00;;;9.15
69420;BMP280;56612;52.030;113.524;2022-09-17T07:10:41;92743.19;;;9.27
69420;BMP280;56612;52.030;113.524;2022-09-17T07:13:45;92749.25;;;9.33
69420;BMP280;56612;52.030;113.524;2022-09-17T07:16:49;92737.44;;;9.46
69420;BMP280;56612;52.030;113.524;2022-09-17T07:19:52;92747.53;;;9.54
69420;BMP280;56612;52.030;113.524;2022-09-17T07:22:56;92749.72;;;9.70
69420;BMP280;56612;52.030;113.524;2022-09-17T07:26:04;92748.63;;;9.89
69420;BMP280;56612;52.030;113.524;2022-09-17T07:29:07;92748.09;;;10.01
69420;BMP280;56612;52.030;113.524;2022-09-17T07:32:11;92755.56;;;10.16
69420;BMP280;56612;52.030;113.524;2022-09-17T07:35:14;92754.44;;;10.36
69420;BMP280;56612;52.030;113.524;2022-09-17T07:38:19;92759.25;;;10.53
69420;BMP280;56612;52.030;113.524;2022-09-17T07:41:22;92758.00;;;10.65
69420;BMP280;56612;52.030;113.524;2022-09-17T07:44:26;92757.44;;;10.76
69420;BMP280;56612;52.030;113.524;2022-09-17T07:47:30;92760.91;;;10.95
69420;BMP280;56612;52.030;113.524;2022-09-17T07:50:36;92761.81;;;11.32
69420;BMP280;56612;52.030;113.524;2022-09-17T07:53:40;92762.63;;;11.61
69420;BMP280;56612;52.030;113.524;2022-09-17T07:56:43;92763.38;;;11.82
69420;BMP280;56612;52.030;113.524;2022-09-17T07:59:47;92763.41;;;11.96
69420;BMP280;56612;52.030;113.524;2022-09-17T08:02:55;92771.50;;;12.12
69420;BMP280;56612;52.030;113.524;2022-09-17T08:06:07;92772.19;;;12.45
69420;BMP280;56612;52.030;113.524;2022-09-17T08:09:11;92784.94;;;12.79
69420;BMP280;56612;52.030;113.524;2022-09-17T08:12:14;92779.56;;;13.22
69420;BMP280;56612;52.030;113.524;2022-09-17T08:15:21;92780.06;;;13.77
69420;BMP280;56612;52.030;113.524;2022-09-17T08:18:24;92780.59;;;14.04
69420;BMP280;56612;52.030;113.524;2022-09-17T08:21:28;92783.75;;;14.39
69420;BMP280;56612;52.030;113.524;2022-09-17T08:24:31;92783.28;;;15.00
69420;BMP280;56612;52.030;113.524;2022-09-17T08:27:35;92784.91;;;16.44
69420;BMP280;56612;52.030;113.524;2022-09-17T08:30:42;92786.09;;;17.34
69420;BMP280;56612;52.030;113.524;2022-09-17T08:33:46;92791.88;;;17.83
69420;BMP280;56612;52.030;113.524;2022-09-17T08:36:49;92791.41;;;19.46
69420;BMP280;56612;52.030;113.524;2022-09-17T08:39:53;92799.50;;;21.03
69420;BMP280;56612;52.030;113.524;2022-09-17T08:43:00;92793.69;;;19.10
69420;BMP280;56612;52.030;113.524;2022-09-17T08:46:09;92795.75;;;17.92
69420;BMP280;56612;52.030;113.524;2022-09-17T08:55:50;92789.66;;;16.42
69420;BMP280;56612;52.030;113.524;2022-09-17T09:02:28;92788.50;;;15.77
69420;BMP280;56612;52.030;113.524;2022-09-17T09:08:41;92799.22;;;14.38
69420;BMP280;56612;52.030;113.524;2022-09-17T09:11:48;92791.91;;;14.21
69420;BMP280;56612;52.030;113.524;2022-09-17T09:15:03;92795.97;;;15.09
69420;BMP280;56612;52.030;113.524;2022-09-17T09:18:17;92808.06;;;17.50
69420;BMP280;56612;52.030;113.524;2022-09-17T09:21:24;92804.78;;;19.77
69420;BMP280;56612;52.030;113.524;2022-09-17T09:28:33;92809.81;;;22.65
69420;BMP280;56612;52.030;113.524;2022-09-17T09:31:46;92806.25;;;22.86
69420;BMP280;56612;52.030;113.524;2022-09-17T09:34:53;92811.34;;;21.33
69420;BMP280;56612;52.030;113.524;2022-09-17T09:38:20;92808.81;;;20.23
69420;BMP280;56612;52.030;113.524;2022-09-17T09:41:33;92809.94;;;19.85
69420;BMP280;56612;52.030;113.524;2022-09-17T09:44:40;92806.97;;;18.36
69420;BMP280;56612;52.030;113.524;2022-09-17T09:51:25;92819.25;;;16.48
69420;BMP280;56612;52.030;113.524;2022-09-17T09:58:23;92820.88;;;15.73
69420;BMP280;56612;52.030;113.524;2022-09-17T10:01:30;92821.00;;;14.92
69420;BMP280;56612;52.030;113.524;2022-09-17T10:04:36;92834.16;;;14.38
69420;BMP280;56612;52.030;113.524;2022-09-17T10:07:43;92839.63;;;14.22
69420;BMP280;56612;52.030;113.524;2022-09-17T10:10:57;92843.13;;;13.82
69420;BMP280;56612;52.030;113.524;2022-09-17T10:17:24;92847.28;;;13.37
69420;BMP280;56612;52.030;113.524;2022-09-17T10:20:28;92842.59;;;12.96
69420;BMP280;56612;52.030;113.524;2022-09-17T10:23:35;92855.34;;;12.72
69420;BMP280;56612;52.030;113.524;2022-09-17T10:26:40;92843.91;;;12.47
69420;BMP280;56612;52.030;113.524;2022-09-17T10:29:46;92855.91;;;12.32
69420;BMP280;56612;52.030;113.524;2022-09-17T10:36:13;92851.75;;;11.90
69420;BMP280;56612;52.030;113.524;2022-09-17T10:39:33;92861.69;;;11.73
69420;BMP280;56612;52.030;113.524;2022-09-17T10:42:38;92861.50;;;11.41
69420;BMP280;56612;52.030;113.524;2022-09-17T10:45:44;92864.06;;;11.26
69420;BMP280;56612;52.030;113.524;2022-09-17T10:49:10;92870.69;;;11.17
69420;BMP280;56612;52.030;113.524;2022-09-17T11:26:28;92900.91;;;10.01
69420;BMP280;56612;52.030;113.524;2022-09-17T11:30:09;92906.19;;;9.99
69420;BMP280;56612;52.030;113.524;2022-09-17T11:39:59;92909.88;;;9.74
69420;BMP280;56612;52.030;113.524;2022-09-17T11:46:28;92923.06;;;9.64
69420;BMP280;56612;52.030;113.524;2022-09-17T11:52:44;92918.84;;;9.50
69420;BMP280;56612;52.030;113.524;2022-09-17T12:05:51;92923.72;;;9.22
69420;BMP280;56612;52.030;113.524;2022-09-17T12:09:03;92932.31;;;9.16
69420;BMP280;56612;52.030;113.524;2022-09-17T12:12:20;92934.16;;;9.08
69420;BMP280;56612;52.030;113.524;2022-09-17T12:15:48;92927.38;;;9.01
69420;BMP280;56612;52.030;113.524;2022-09-17T12:22:16;92946.97;;;8.79
69420;BMP280;56612;52.030;113.524;2022-09-17T12:25:20;92944.84;;;8.74
69420;BMP280;56612;52.030;113.524;2022-09-17T12:28:32;92943.47;;;8.71
69420;BMP280;56612;52.030;113.524;2022-09-17T12:31:42;92942.03;;;8.64
69420;BMP280;56612;52.030;113.524;2022-09-17T12:38:45;92944.72;;;8.66
69420;BMP280;56612;52.030;113.524;2022-09-17T12:46:12;92956.00;;;8.64
69420;BMP280;56612;52.030;113.524;2022-09-17T12:53:00;92952.50;;;8.55
69420;BMP280;56612;52.030;113.524;2022-09-17T12:59:15;92974.28;;;8.46
69420;BMP280;56612;52.030;113.524;2022-09-17T13:02:32;92976.91;;;8.44
69420;BMP280;56612;52.030;113.524;2022-09-17T13:13:03;92991.44;;;8.39
69420;BMP280;56612;52.030;113.524;2022-09-17T13:23:02;92992.66;;;8.34
69420;BMP280;56612;52.030;113.524;2022-09-17T13:26:07;92990.00;;;8.34
69420;BMP280;56612;52.030;113.524;2022-09-17T13:32:50;93002.28;;;8.17
69420;BMP280;56612;52.030;113.524;2022-09-17T13:35:53;93002.16;;;8.11
69420;BMP280;56612;52.030;113.524;2022-09-17T13:38:58;93006.09;;;8.08
69420;BMP280;56612;52.030;113.524;2022-09-17T13:45:24;93006.03;;;8.06
69420;BMP280;56612;52.030;113.524;2022-09-17T13:48:30;93010.72;;;8.07
69420;BMP280;56612;52.030;113.524;2022-09-17T13:54:40;93009.97;;;8.03
69420;BMP280;56612;52.030;113.524;2022-09-17T13:57:48;93029.72;;;7.66
69420;BMP280;56612;52.030;113.524;2022-09-17T14:01:10;93033.19;;;7.44
69420;BMP280;56612;52.030;113.524;2022-09-17T14:08:08;93046.44;;;7.18
69420;BMP280;56612;52.030;113.524;2022-09-17T14:14:41;93043.50;;;7.32
69420;BMP280;56612;52.030;113.524;2022-09-17T14:17:50;93046.19;;;7.34
69420;BMP280;56612;52.030;113.524;2022-09-17T14:21:08;93054.22;;;7.36
69420;BMP280;56612;52.030;113.524;2022-09-17T14:30:47;93075.59;;;7.40
69420;BMP280;56612;52.030;113.524;2022-09-17T14:33:51;93080.66;;;7.56
69420;BMP280;56612;52.030;113.524;2022-09-17T14:36:55;93081.53;;;7.65
69420;BMP280;56612;52.030;113.524;2022-09-17T14:39:58;93084.41;;;7.73
69420;BMP280;56612;52.030;113.524;2022-09-17T14:43:02;93086.75;;;7.86
69420;BMP280;56612;52.030;113.524;2022-09-17T14:46:08;93082.25;;;7.93
69420;BMP280;56612;52.030;113.524;2022-09-17T14:49:14;93091.88;;;8.06
69420;BMP280;56612;52.030;113.524;2022-09-17T14:55:31;93102.19;;;7.92
69420;BMP280;56612;52.030;113.524;2022-09-17T14:58:37;93102.53;;;7.80
69420;BMP280;56612;52.030;113.524;2022-09-17T15:01:45;93102.44;;;7.76
69420;BMP280;56612;52.030;113.524;2022-09-17T15:04:50;93109.81;;;7.80
69420;BMP280;56612;52.030;113.524;2022-09-17T15:08:21;93110.47;;;7.78
69420;BMP280;56612;52.030;113.524;2022-09-17T15:11:26;93111.44;;;7.63
69420;BMP280;56612;52.030;113.524;2022-09-17T15:14:35;93112.78;;;7.64
69420;BMP280;56612;52.030;113.524;2022-09-17T15:17:41;93125.53;;;7.70
69420;BMP280;56612;52.030;113.524;2022-09-17T15:20:46;93121.38;;;7.62
69420;BMP280;56612;52.030;113.524;2022-09-17T15:23:53;93122.75;;;7.63
69420;BMP280;56612;52.030;113.524;2022-09-17T15:26:58;93122.28;;;7.71
69420;BMP280;56612;52.030;113.524;2022-09-17T15:30:10;93129.72;;;7.77
69420;BMP280;56612;52.030;113.524;2022-09-17T15:33:16;93129.72;;;7.77
69420;BMP280;56612;52.030;113.524;2022-09-17T15:36:22;93127.06;;;7.77
69420;BMP280;56612;52.030;113.524;2022-09-17T15:39:36;93136.50;;;7.82
69420;BMP280;56612;52.030;113.524;2022-09-17T15:42:48;93141.47;;;7.93
69420;BMP280;56612;52.030;113.524;2022-09-17T15:45:54;93125.38;;;7.89
69420;BMP280;56612;52.030;113.524;2022-09-17T15:49:00;93134.53;;;7.82
69420;BMP280;56612;52.030;113.524;2022-09-17T15:52:25;93143.19;;;7.83
69420;BMP280;56612;52.030;113.524;2022-09-17T16:05:45;93144.41;;;7.80
69420;BMP280;56612;52.030;113.524;2022-09-17T16:08:23;93149.69;;;7.78
69420;BMP280;56612;52.030;113.524;2022-09-17T16:11:30;93157.44;;;7.70
69420;BMP280;56612;52.030;113.524;2022-09-17T16:14:34;93175.38;;;7.69
69420;BMP280;56612;52.030;113.524;2022-09-17T16:17:44;93167.13;;;7.59
69420;BMP280;56612;52.030;113.524;2022-09-17T16:20:49;93176.22;;;7.50
69420;BMP280;56612;52.030;113.524;2022-09-17T16:23:53;93187.41;;;7.46
69420;BMP280;56612;52.030;113.524;2022-09-17T16:26:57;93189.44;;;7.48
69420;BMP280;56612;52.030;113.524;2022-09-17T16:30:05;93199.97;;;7.44
69420;BMP280;56612;52.030;113.524;2022-09-17T16:33:13;93199.66;;;7.34
69420;BMP280;56612;52.030;113.524;2022-09-17T16:36:17;93194.66;;;7.20
69420;BMP280;56612;52.030;113.524;2022-09-17T16:39:21;93201.28;;;6.97
69420;BMP280;56612;52.030;113.524;2022-09-17T16:42:28;93201.34;;;6.77
69420;BMP280;56612;52.030;113.524;2022-09-17T16:45:32;93198.38;;;6.67
69420;BMP280;56612;52.030;113.524;2022-09-17T16:48:37;93206.03;;;6.57
69420;BMP280;56612;52.030;113.524;2022-09-17T16:51:40;93223.94;;;6.37
69420;BMP280;56612;52.030;113.524;2022-09-17T16:54:44;93229.22;;;6.15
69420;BMP280;56612;52.030;113.524;2022-09-17T16:57:48;93229.78;;;6.13
69420;BMP280;56612;52.030;113.524;2022-09-17T17:00:52;93237.41;;;6.23
69420;BMP280;56612;52.030;113.524;2022-09-17T17:03:56;93237.69;;;6.31
69420;BMP280;56612;52.030;113.524;2022-09-17T17:07:01;93243.81;;;6.35
69420;BMP280;56612;52.030;113.524;2022-09-17T17:10:06;93246.28;;;6.29
69420;BMP280;56612;52.030;113.524;2022-09-17T17:13:11;93246.97;;;6.30
69420;BMP280;56612;52.030;113.524;2022-09-17T17:16:15;93254.31;;;6.31
69420;BMP280;56612;52.030;113.524;2022-09-17T17:19:19;93248.94;;;6.29
69420;BMP280;56612;52.030;113.524;2022-09-17T17:22:23;93255.47;;;6.26
69420;BMP280;56612;52.030;113.524;2022-09-17T17:25:28;93256.50;;;6.17
69420;BMP280;56612;52.030;113.524;2022-09-17T17:28:34;93254.97;;;6.12
69420;BMP280;56612;52.030;113.524;2022-09-17T17:31:38;93261.63;;;6.13
69420;BMP280;56612;52.030;113.524;2022-09-17T17:34:42;93268.91;;;6.13
69420;BMP280;56612;52.030;113.524;2022-09-17T17:37:46;93274.31;;;6.15
69420;BMP280;56612;52.030;113.524;2022-09-17T17:41:01;93272.41;;;6.17
69420;BMP280;56612;52.030;113.524;2022-09-17T17:44:05;93275.84;;;6.22
69420;BMP280;56612;52.030;113.524;2022-09-17T17:47:10;93273.94;;;6.24
69420;BMP280;56612;52.030;113.524;2022-09-17T17:50:14;93281.78;;;6.20
69420;BMP280;56612;52.030;113.524;2022-09-17T17:53:18;93288.44;;;6.21
69420;BMP280;56612;52.030;113.524;2022-09-17T17:56:22;93297.16;;;6.24
69420;BMP280;56612;52.030;113.524;2022-09-17T17:59:25;93299.06;;;6.21
69420;BMP280;56612;52.030;113.524;2022-09-17T18:02:29;93302.38;;;6.22
69420;BMP280;56612;52.030;113.524;2022-09-17T18:05:33;93304.25;;;6.17
69420;BMP280;56612;52.030;113.524;2022-09-17T18:08:39;93308.88;;;6.17
69420;BMP280;56612;52.030;113.524;2022-09-17T18:11:43;93312.81;;;6.16
69420;BMP280;56612;52.030;113.524;2022-09-17T18:14:46;93308.63;;;6.11
69420;BMP280;56612;52.030;113.524;2022-09-17T18:17:51;93313.88;;;6.09
69420;BMP280;56612;52.030;113.524;2022-09-17T18:20:59;93316.53;;;6.09
69420;BMP280;56612;52.030;113.524;2022-09-17T18:24:04;93326.38;;;6.06
69420;BMP280;56612;52.030;113.524;2022-09-17T18:27:07;93319.78;;;6.07
69420;BMP280;56612;52.030;113.524;2022-09-17T18:30:12;93323.88;;;6.10
69420;BMP280;56612;52.030;113.524;2022-09-17T18:33:22;93322.44;;;6.07
69420;BMP280;56612;52.030;113.524;2022-09-17T18:36:30;93330.88;;;6.01
69420;BMP280;56612;52.030;113.524;2022-09-17T18:39:34;93324.88;;;6.01
69420;BMP280;56612;52.030;113.524;2022-09-17T18:42:58;93332.00;;;5.96
69420;BMP280;56612;52.030;113.524;2022-09-17T18:46:02;93337.94;;;5.95
69420;BMP280;56612;52.030;113.524;2022-09-17T18:49:07;93334.44;;;5.90
69420;BMP280;56612;52.030;113.524;2022-09-17T18:52:11;93329.50;;;5.83
69420;BMP280;56612;52.030;113.524;2022-09-17T18:55:15;93335.97;;;5.78
69420;BMP280;56612;52.030;113.524;2022-09-17T18:58:21;93339.97;;;5.79
69420;BMP280;56612;52.030;113.524;2022-09-17T19:01:26;93349.91;;;5.78
69420;BMP280;56612;52.030;113.524;2022-09-17T19:04:30;93347.19;;;5.76
69420;BMP280;56612;52.030;113.524;2022-09-17T19:07:34;93352.94;;;5.70
69420;BMP280;56612;52.030;113.524;2022-09-17T19:10:38;93354.00;;;5.63
69420;BMP280;56612;52.030;113.524;2022-09-17T19:13:44;93349.97;;;5.62
69420;BMP280;56612;52.030;113.524;2022-09-17T19:16:48;93358.31;;;5.55
69420;BMP280;56612;52.030;113.524;2022-09-17T19:19:51;93364.31;;;5.55
69420;BMP280;56612;52.030;113.524;2022-09-17T19:22:55;93363.22;;;5.45
69420;BMP280;56612;52.030;113.524;2022-09-17T19:26:07;93376.63;;;5.49
69420;BMP280;56612;52.030;113.524;2022-09-17T19:29:11;93371.69;;;5.41
69420;BMP280;56612;52.030;113.524;2022-09-17T19:32:14;93380.78;;;5.36
69420;BMP280;56612;52.030;113.524;2022-09-17T19:35:18;93388.47;;;5.30
69420;BMP280;56612;52.030;113.524;2022-09-17T19:38:24;93387.59;;;5.41
69420;BMP280;56612;52.030;113.524;2022-09-17T19:41:28;93388.38;;;5.44
69420;BMP280;56612;52.030;113.524;2022-09-17T19:44:34;93395.66;;;5.43
69420;BMP280;56612;52.030;113.524;2022-09-17T19:47:38;93397.97;;;5.35
69420;BMP280;56612;52.030;113.524;2022-09-17T19:50:51;93405.38;;;5.38
69420;BMP280;56612;52.030;113.524;2022-09-17T19:53:55;93400.97;;;5.27
69420;BMP280;56612;52.030;113.524;2022-09-17T19:57:00;93402.84;;;5.25
69420;BMP280;56612;52.030;113.524;2022-09-17T20:00:05;93413.03;;;5.15
69420;BMP280;56612;52.030;113.524;2022-09-17T20:03:12;93416.88;;;5.12
69420;BMP280;56612;52.030;113.524;2022-09-17T20:06:17;93419.09;;;5.17
69420;BMP280;56612;52.030;113.524;2022-09-17T20:09:22;93422.84;;;5.12
69420;BMP280;56612;52.030;113.524;2022-09-17T20:12:26;93424.81;;;5.12
69420;BMP280;56612;52.030;113.524;2022-09-17T20:15:34;93422.03;;;5.07
69420;BMP280;56612;52.030;113.524;2022-09-17T20:18:38;93433.91;;;5.06
69420;BMP280;56612;52.030;113.524;2022-09-17T20:21:42;93439.97;;;5.09
69420;BMP280;56612;52.030;113.524;2022-09-17T20:24:46;93439.13;;;5.04
69420;BMP280;56612;52.030;113.524;2022-09-17T20:27:52;93442.34;;;5.03
69420;BMP280;56612;52.030;113.524;2022-09-17T20:31:19;93448.41;;;5.05
69420;BMP280;56612;52.030;113.524;2022-09-17T20:34:22;93447.56;;;5.01
69420;BMP280;56612;52.030;113.524;2022-09-17T20:37:27;93446.53;;;5.08
69420;BMP280;56612;52.030;113.524;2022-09-17T20:40:50;93453.72;;;5.05
69420;BMP280;56612;52.030;113.524;2022-09-17T20:43:54;93449.63;;;5.02
69420;BMP280;56612;52.030;113.524;2022-09-17T20:46:57;93454.63;;;4.96
69420;BMP280;56612;52.030;113.524;2022-09-17T20:50:01;93457.56;;;5.02
69420;BMP280;56612;52.030;113.524;2022-09-17T20:53:04;93461.59;;;5.03
69420;BMP280;56612;52.030;113.524;2022-09-17T20:56:09;93461.31;;;4.97